createdAt,value
2023-03-25T00:01:34.373Z,8.07
2023-03-25T00:04:39.639Z,8.10
2023-03-25T00:07:41.580Z,8.06
2023-03-25T00:10:44.502Z,8.06
2023-03-25T00:13:46.213Z,8.09
2023-03-25T00:16:48.662Z,8.03
2023-03-25T00:19:53.268Z,8.03
2023-03-25T00:22:54.919Z,8.09
2023-03-25T00:26:01.153Z,8.01
2023-03-25T00:29:03.796Z,7.97
2023-03-25T00:32:05.920Z,8.02
2023-03-25T00:35:10.670Z,8.03
2023-03-25T00:38:12.339Z,8.03
2023-03-25T00:41:23.264Z,8.05
2023-03-25T00:44:25.201Z,8.05
2023-03-25T00:47:27.190Z,8.06
2023-03-25T00:50:28.830Z,8.05
2023-03-25T00:53:30.551Z,8.06
2023-03-25T00:56:33.846Z,7.98
2023-03-25T00:59:36.221Z,7.92
2023-03-25T01:02:39.607Z,7.84
2023-03-25T01:05:41.678Z,7.81
2023-03-25T01:08:44.037Z,7.81
2023-03-25T01:11:47.863Z,7.78
2023-03-25T01:14:51.102Z,7.74
2023-03-25T01:17:52.706Z,7.64
2023-03-25T01:20:54.325Z,7.56
2023-03-25T01:23:56.428Z,7.48
2023-03-25T01:26:59.351Z,7.40
2023-03-25T01:30:02.918Z,7.31
2023-03-25T01:33:04.467Z,7.26
2023-03-25T01:36:09.866Z,7.21
2023-03-25T01:39:11.585Z,7.17
2023-03-25T01:42:14.567Z,7.17
2023-03-25T01:45:23.926Z,7.17
2023-03-25T01:48:28.864Z,7.18
2023-03-25T01:51:32.517Z,7.16
2023-03-25T01:54:34.563Z,7.16
2023-03-25T01:57:40.590Z,7.13
2023-03-25T02:00:47.728Z,7.11
2023-03-25T02:03:52.347Z,7.12
2023-03-25T02:06:55.767Z,7.12
2023-03-25T02:09:58.433Z,7.16
2023-03-25T02:13:01.579Z,7.15
2023-03-25T02:16:11.213Z,7.15
2023-03-25T02:19:25.041Z,7.16
2023-03-25T02:22:51.077Z,7.18
2023-03-25T02:26:05.337Z,7.20
2023-03-25T02:29:13.501Z,7.20
2023-03-25T02:32:21.230Z,7.18
2023-03-25T02:35:30.012Z,7.18
2023-03-25T02:38:36.774Z,7.15
2023-03-25T02:41:42.388Z,7.13
2023-03-25T02:44:49.111Z,7.15
2023-03-25T02:47:54.522Z,7.16
2023-03-25T02:50:58.176Z,7.15
2023-03-25T02:54:03.264Z,7.15
2023-03-25T03:00:20.419Z,7.17
2023-03-25T03:03:22.129Z,7.16
2023-03-25T03:06:24.773Z,7.16
2023-03-25T03:09:33.737Z,7.15
2023-03-25T03:12:40.834Z,7.14
2023-03-25T03:15:46.300Z,7.14
2023-03-25T03:18:52.044Z,7.13
2023-03-25T03:21:56.687Z,7.11
2023-03-25T03:25:01.911Z,7.09
2023-03-25T03:28:05.859Z,7.08
2023-03-25T03:31:10.668Z,7.06
2023-03-25T03:34:15.636Z,7.05
2023-03-25T03:37:19.664Z,7.02
2023-03-25T03:40:23.500Z,7.01
2023-03-25T03:43:26.320Z,7.00
2023-03-25T03:46:31.136Z,6.96
2023-03-25T03:49:35.388Z,6.98
2023-03-25T03:52:40.261Z,6.93
2023-03-25T03:55:46.347Z,6.93
2023-03-25T03:58:50.459Z,6.93
2023-03-25T04:01:56.102Z,6.95
2023-03-25T04:05:00.881Z,6.92
2023-03-25T04:08:04.461Z,6.96
2023-03-25T04:11:10.266Z,6.97
2023-03-25T04:14:13.561Z,6.98
2023-03-25T04:17:15.107Z,6.97
2023-03-25T04:20:23.933Z,6.99
2023-03-25T04:23:26.118Z,6.98
2023-03-25T04:26:34.336Z,7.01
2023-03-25T04:29:36.229Z,7.00
2023-03-25T04:32:38.017Z,6.99
2023-03-25T04:35:40.636Z,7.01
2023-03-25T04:38:45.982Z,7.01
2023-03-25T04:41:49.818Z,7.02
2023-03-25T04:44:51.415Z,7.01
2023-03-25T04:47:54.803Z,7.04
2023-03-25T04:50:57.910Z,7.04
2023-03-25T04:53:59.575Z,7.04
2023-03-25T04:57:03.004Z,7.04
2023-03-25T05:00:06.612Z,7.01
2023-03-25T05:03:09.848Z,7.03
2023-03-25T05:06:11.704Z,7.01
2023-03-25T05:09:16.250Z,7.01
2023-03-25T05:12:19.117Z,6.99
2023-03-25T05:15:20.945Z,6.96
2023-03-25T05:18:22.683Z,6.99
2023-03-25T05:21:24.434Z,6.97
2023-03-25T05:24:26.289Z,7.00
2023-03-25T05:27:30.314Z,6.97
2023-03-25T05:30:32.605Z,6.93
2023-03-25T05:33:34.697Z,6.94
2023-03-25T05:36:39.109Z,6.96
2023-03-25T05:39:40.954Z,6.95
2023-03-25T05:42:47.169Z,6.95
2023-03-25T05:45:49.216Z,6.96
2023-03-25T05:48:51.358Z,6.98
2023-03-25T05:51:54.236Z,7.00
2023-03-25T05:54:56.048Z,7.01
2023-03-25T05:57:59.275Z,6.99
2023-03-25T06:01:03.061Z,7.00
2023-03-25T06:04:05.043Z,6.99
2023-03-25T06:07:09.219Z,7.01
2023-03-25T06:10:10.970Z,7.01
2023-03-25T06:13:13.953Z,7.03
2023-03-25T06:16:19.493Z,7.02
2023-03-25T06:19:21.034Z,7.05
2023-03-25T06:22:22.588Z,7.04
2023-03-25T06:25:24.397Z,7.02
2023-03-25T06:28:27.637Z,7.01
2023-03-25T06:31:33.404Z,7.02
2023-03-25T06:34:35.486Z,7.05
2023-03-25T06:37:37.951Z,7.05
2023-03-25T06:40:44.770Z,7.07
2023-03-25T06:43:48.227Z,7.09
2023-03-25T06:47:25.466Z,7.12
2023-03-25T06:50:27.659Z,7.10
2023-03-25T06:53:29.451Z,7.17
2023-03-25T06:56:31.371Z,7.24
2023-03-25T06:59:34.358Z,7.20
2023-03-25T07:02:36.277Z,7.14
2023-03-25T07:05:38.177Z,7.15
2023-03-25T07:08:40.275Z,7.17
2023-03-25T07:11:41.881Z,7.19
2023-03-25T07:14:50.259Z,7.19
2023-03-25T07:21:12.808Z,6.95
2023-03-25T07:24:14.337Z,6.82
2023-03-25T07:27:15.958Z,6.73
2023-03-25T07:30:25.743Z,6.73
2023-03-25T07:33:27.281Z,6.74
2023-03-25T07:36:29.045Z,6.72
2023-03-25T07:39:30.788Z,6.69
2023-03-25T07:42:36.011Z,6.79
2023-03-25T07:45:51.640Z,6.73
2023-03-25T07:48:53.401Z,6.60
2023-03-25T07:51:55.282Z,6.53
2023-03-25T07:54:57.210Z,6.51
2023-03-25T07:58:01.165Z,6.53
2023-03-25T08:01:04.929Z,6.47
2023-03-25T08:04:06.614Z,6.53
2023-03-25T08:07:08.262Z,6.54
2023-03-25T08:10:10.323Z,6.65
2023-03-25T08:13:12.694Z,6.68
2023-03-25T08:16:15.821Z,6.74
2023-03-25T08:19:17.429Z,6.81
2023-03-25T08:22:19.120Z,6.87
2023-03-25T08:25:21.019Z,6.88
2023-03-25T08:28:23.733Z,6.87
2023-03-25T08:31:31.237Z,6.88
2023-03-25T08:34:39.880Z,6.89
2023-03-25T08:37:41.785Z,6.94
2023-03-25T08:40:44.137Z,6.94
2023-03-25T08:43:45.990Z,6.98
2023-03-25T08:46:49.269Z,7.08
2023-03-25T08:49:50.881Z,7.30
2023-03-25T08:52:54.712Z,7.50
2023-03-25T08:55:57.800Z,7.77
2023-03-25T08:58:59.456Z,7.68
2023-03-25T09:02:02.496Z,7.72
2023-03-25T09:05:04.539Z,8.13
2023-03-25T09:08:07.197Z,8.23
2023-03-25T09:11:09.053Z,8.14
2023-03-25T09:14:10.676Z,8.18
2023-03-25T09:17:13.727Z,8.23
2023-03-25T09:20:15.457Z,8.27
2023-03-25T09:23:17.067Z,8.14
2023-03-25T09:26:18.698Z,7.97
2023-03-25T09:29:20.262Z,7.80
2023-03-25T09:32:23.378Z,7.73
2023-03-25T09:35:25.121Z,7.76
2023-03-25T09:38:27.278Z,7.90
2023-03-25T09:41:43.355Z,7.92
2023-03-25T09:44:52.435Z,7.88
2023-03-25T09:47:58.160Z,8.17
2023-03-25T09:51:02.845Z,8.30
2023-03-25T09:54:13.088Z,8.39
2023-03-25T09:57:18.373Z,8.15
2023-03-25T10:00:22.642Z,8.02
2023-03-25T10:03:29.155Z,8.01
2023-03-25T10:06:32.383Z,8.05
2023-03-25T10:09:39.191Z,8.08
2023-03-25T10:12:44.455Z,8.20
2023-03-25T10:15:50.296Z,8.54
2023-03-25T10:18:59.606Z,8.77
2023-03-25T10:22:03.942Z,9.05
2023-03-25T10:25:11.064Z,9.26
2023-03-25T10:28:16.515Z,9.19
2023-03-25T10:31:20.646Z,9.29
2023-03-25T10:34:29.709Z,9.01
2023-03-25T10:37:32.530Z,8.82
2023-03-25T10:40:36.429Z,8.64
2023-03-25T10:43:39.519Z,8.56
2023-03-25T10:46:47.909Z,8.48
2023-03-25T10:49:52.457Z,8.56
2023-03-25T10:52:56.676Z,8.67
2023-03-25T10:55:59.525Z,8.71
2023-03-25T10:59:04.366Z,8.82
2023-03-25T11:02:12.673Z,9.15
2023-03-25T11:05:18.996Z,9.59
2023-03-25T11:08:25.565Z,9.16
2023-03-25T11:11:32.265Z,8.81
2023-03-25T11:14:36.945Z,8.72
2023-03-25T11:17:39.783Z,8.56
2023-03-25T11:20:53.786Z,8.47
2023-03-25T11:23:55.709Z,8.59
2023-03-25T11:26:57.591Z,8.61
2023-03-25T11:30:01.403Z,8.65
2023-03-25T11:33:04.995Z,8.79
2023-03-25T11:36:12.411Z,8.94
2023-03-25T11:39:19.540Z,9.13
2023-03-25T11:42:28.975Z,9.05
2023-03-25T11:45:35.636Z,8.88
2023-03-25T11:48:40.478Z,8.76
2023-03-25T11:51:44.414Z,8.70
2023-03-25T11:54:46.237Z,8.68
2023-03-25T11:57:49.544Z,8.61
2023-03-25T12:00:53.632Z,8.71
2023-03-25T12:04:05.906Z,8.73
2023-03-25T12:07:15.470Z,8.81
2023-03-25T12:10:18.889Z,8.87
2023-03-25T12:13:29.828Z,8.97
2023-03-25T12:16:37.630Z,8.87
2023-03-25T12:19:45.898Z,8.77
2023-03-25T12:22:55.623Z,8.79
2023-03-25T12:26:01.294Z,8.86
2023-03-25T12:29:17.566Z,8.90
2023-03-25T12:32:30.126Z,8.87
2023-03-25T12:35:36.335Z,9.22
2023-03-25T12:38:45.787Z,9.39
2023-03-25T12:41:54.616Z,9.26
2023-03-25T12:45:11.098Z,9.11
2023-03-25T12:48:19.431Z,8.93
2023-03-25T12:51:25.684Z,9.00
2023-03-25T12:54:34.590Z,8.94
2023-03-25T12:57:44.338Z,8.99
2023-03-25T13:00:52.815Z,8.95
2023-03-25T13:04:07.543Z,8.88
2023-03-25T13:07:11.748Z,8.83
2023-03-25T13:10:20.270Z,8.78
2023-03-25T13:13:24.313Z,8.69
2023-03-25T13:16:28.028Z,8.66
2023-03-25T13:19:32.573Z,8.70
2023-03-25T13:22:37.183Z,8.60
2023-03-25T13:25:47.721Z,8.41
2023-03-25T13:28:51.767Z,8.39
2023-03-25T13:31:54.038Z,8.36
2023-03-25T13:34:57.501Z,8.40
2023-03-25T13:38:01.306Z,8.38
2023-03-25T13:41:08.561Z,8.23
2023-03-25T13:44:12.445Z,8.27
2023-03-25T13:47:18.058Z,8.31
2023-03-25T13:50:24.506Z,8.25
2023-03-25T13:53:29.376Z,8.25
2023-03-25T13:56:49.898Z,8.30
2023-03-25T14:00:06.387Z,8.32
2023-03-25T14:03:27.409Z,8.27
2023-03-25T14:06:37.601Z,8.16
2023-03-25T14:09:57.145Z,7.99
2023-03-25T14:12:59.831Z,7.88
2023-03-25T14:16:04.189Z,7.88
2023-03-25T14:19:11.951Z,7.89
2023-03-25T14:25:29.224Z,8.03
2023-03-25T14:28:37.532Z,8.27
2023-03-25T14:31:39.176Z,8.41
2023-03-25T14:34:42.448Z,8.56
2023-03-25T14:37:44.087Z,8.68
2023-03-25T14:41:02.127Z,8.56
2023-03-25T14:44:33.399Z,8.53
2023-03-25T14:47:37.089Z,8.46
2023-03-25T14:50:40.981Z,8.43
2023-03-25T14:53:49.750Z,8.62
2023-03-25T14:56:57.697Z,8.76
2023-03-25T15:00:02.025Z,8.78
2023-03-25T15:03:05.417Z,8.67
2023-03-25T15:06:09.762Z,8.55
2023-03-25T15:09:13.139Z,8.51
2023-03-25T15:12:16.695Z,8.46
2023-03-25T15:15:26.209Z,8.48
2023-03-25T15:18:49.498Z,8.53
2023-03-25T15:22:11.397Z,8.59
2023-03-25T15:25:16.871Z,8.71
2023-03-25T15:28:22.603Z,8.76
2023-03-25T15:31:29.491Z,8.61
2023-03-25T15:34:41.621Z,8.17
2023-03-25T15:37:59.380Z,8.00
2023-03-25T15:41:10.777Z,7.96
2023-03-25T15:44:24.951Z,8.02
2023-03-25T15:47:47.579Z,7.90
2023-03-25T15:51:02.621Z,7.64
2023-03-25T15:54:17.287Z,7.55
2023-03-25T15:57:24.306Z,7.34
2023-03-25T16:00:28.462Z,7.23
2023-03-25T16:03:31.413Z,7.14
2023-03-25T16:06:35.296Z,7.18
2023-03-25T16:09:39.277Z,7.24
2023-03-25T16:12:42.617Z,7.23
2023-03-25T16:15:44.736Z,7.18
2023-03-25T16:18:46.832Z,7.20
2023-03-25T16:21:49.817Z,7.19
2023-03-25T16:24:51.590Z,7.16
2023-03-25T16:27:58.852Z,7.11
2023-03-25T16:31:02.928Z,7.19
2023-03-25T16:34:07.031Z,7.18
2023-03-25T16:37:10.675Z,7.15
2023-03-25T16:40:19.491Z,7.09
2023-03-25T16:43:23.616Z,7.06
2023-03-25T16:46:25.750Z,7.02
2023-03-25T16:49:29.736Z,7.00
2023-03-25T16:52:33.019Z,6.97
2023-03-25T16:55:42.237Z,6.93
2023-03-25T16:58:54.928Z,6.94
2023-03-25T17:01:59.769Z,6.94
2023-03-25T17:05:12.895Z,6.98
2023-03-25T17:08:15.945Z,6.97
2023-03-25T17:11:17.514Z,7.00
2023-03-25T17:14:22.079Z,7.08
2023-03-25T17:17:32.119Z,7.07
2023-03-25T17:20:36.884Z,7.11
2023-03-25T17:23:43.961Z,7.15
2023-03-25T17:26:54.473Z,7.02
2023-03-25T17:29:59.019Z,6.83
2023-03-25T17:33:10.186Z,6.73
2023-03-25T17:36:12.763Z,6.65
2023-03-25T17:39:17.875Z,6.59
2023-03-25T17:42:23.547Z,6.54
2023-03-25T17:45:27.468Z,6.55
2023-03-25T17:48:29.177Z,6.58
2023-03-25T17:51:32.776Z,6.56
2023-03-25T17:54:34.394Z,6.58
2023-03-25T17:57:37.493Z,6.61
2023-03-25T18:00:41.003Z,6.62
2023-03-25T18:03:46.414Z,6.59
2023-03-25T18:06:48.170Z,6.63
2023-03-25T18:09:49.750Z,6.69
2023-03-25T18:12:51.413Z,6.69
2023-03-25T18:15:54.675Z,6.61
2023-03-25T18:18:56.224Z,6.53
2023-03-25T18:22:06.935Z,6.40
2023-03-25T18:25:15.786Z,6.33
2023-03-25T18:28:17.942Z,6.29
2023-03-25T18:31:23.466Z,6.26
2023-03-25T18:34:26.109Z,6.24
2023-03-25T18:37:27.719Z,6.25
2023-03-25T18:40:31.659Z,6.25
2023-03-25T18:43:33.459Z,6.26
2023-03-25T18:46:36.847Z,6.25
2023-03-25T18:49:38.896Z,6.26
2023-03-25T18:52:40.553Z,6.28
2023-03-25T18:55:42.722Z,6.28
2023-03-25T18:58:44.258Z,6.31
2023-03-25T19:01:47.578Z,6.31
2023-03-25T19:05:00.318Z,6.30
2023-03-25T19:08:06.132Z,6.31
2023-03-25T19:11:18.991Z,6.28
2023-03-25T19:14:22.346Z,6.26
2023-03-25T19:17:25.451Z,6.26
2023-03-25T19:20:29.494Z,6.27
2023-03-25T19:23:31.476Z,6.29
2023-03-25T19:26:33.074Z,6.27
2023-03-25T19:29:34.897Z,6.26
2023-03-25T19:32:38.191Z,6.25
2023-03-25T19:35:39.911Z,6.21
2023-03-25T19:38:42.807Z,6.20
2023-03-25T19:41:46.580Z,6.20
2023-03-25T19:44:48.200Z,6.16
2023-03-25T19:47:52.421Z,6.15
2023-03-25T19:50:57.184Z,6.12
2023-03-25T19:53:58.846Z,6.07
2023-03-25T19:57:00.636Z,6.05
2023-03-25T20:00:08.179Z,6.02
2023-03-25T20:03:13.620Z,6.02
2023-03-25T20:06:15.489Z,6.01
2023-03-25T20:09:17.162Z,6.00
2023-03-25T20:12:18.685Z,5.99
2023-03-25T20:15:21.162Z,5.96
2023-03-25T20:18:24.089Z,5.95
2023-03-25T20:21:25.916Z,5.95
2023-03-25T20:24:27.573Z,5.93
2023-03-25T20:27:29.379Z,5.94
2023-03-25T20:30:33.946Z,5.92
2023-03-25T20:33:37.240Z,5.91
2023-03-25T20:36:39.078Z,5.92
2023-03-25T20:39:41.162Z,5.88
2023-03-25T20:42:44.053Z,5.86
2023-03-25T20:45:45.879Z,5.85
2023-03-25T20:48:49.014Z,5.82
2023-03-25T20:51:51.303Z,5.77
2023-03-25T20:54:53.183Z,5.80
2023-03-25T20:57:55.114Z,5.81
2023-03-25T21:00:59.140Z,5.84
2023-03-25T21:04:03.414Z,5.83
2023-03-25T21:07:06.012Z,5.84
2023-03-25T21:10:08.826Z,5.87
2023-03-25T21:13:10.858Z,5.91
2023-03-25T21:16:13.985Z,5.94
2023-03-25T21:19:19.531Z,5.96
2023-03-25T21:22:21.871Z,5.99
2023-03-25T21:25:23.478Z,5.97
2023-03-25T21:28:25.875Z,5.99
2023-03-25T21:31:28.703Z,6.01
2023-03-25T21:34:31.930Z,6.03
2023-03-25T21:37:39.054Z,6.03
2023-03-25T21:40:41.693Z,6.03
2023-03-25T21:43:44.334Z,6.07
2023-03-25T21:46:45.894Z,6.05
2023-03-25T21:49:50.246Z,6.05
2023-03-25T21:52:51.894Z,6.05
2023-03-25T21:55:55.623Z,6.07
2023-03-25T21:59:03.466Z,6.08
2023-03-25T22:02:05.883Z,6.09
2023-03-25T22:05:09.665Z,6.09
2023-03-25T22:08:12.084Z,6.07
2023-03-25T22:11:15.697Z,6.06
2023-03-25T22:14:17.318Z,6.07
2023-03-25T22:17:18.986Z,6.08
2023-03-25T22:20:22.274Z,6.06
2023-03-25T22:23:24.264Z,6.08
2023-03-25T22:26:26.920Z,6.07
2023-03-25T22:29:28.622Z,6.09
2023-03-25T22:32:30.473Z,6.08
2023-03-25T22:35:33.973Z,6.07
2023-03-25T22:38:35.809Z,6.07
2023-03-25T22:41:37.471Z,6.05
2023-03-25T22:44:40.349Z,6.07
2023-03-25T22:47:42.238Z,6.08
2023-03-25T22:50:45.528Z,6.10
2023-03-25T22:53:47.604Z,6.09
2023-03-25T22:56:52.654Z,6.12
2023-03-25T22:59:55.853Z,6.14
2023-03-25T23:02:57.684Z,6.14
2023-03-25T23:06:02.167Z,6.16
2023-03-25T23:09:04.360Z,6.18
2023-03-25T23:12:06.536Z,6.20
2023-03-25T23:15:08.319Z,6.21
2023-03-25T23:18:10.403Z,6.23
2023-03-25T23:21:14.910Z,6.24
2023-03-25T23:24:16.765Z,6.25
2023-03-25T23:27:18.461Z,6.26
2023-03-25T23:30:20.983Z,6.25
2023-03-25T23:33:22.713Z,6.28
2023-03-25T23:36:26.217Z,6.27
2023-03-25T23:39:27.983Z,6.29
2023-03-25T23:42:35.545Z,6.29
2023-03-25T23:45:37.571Z,6.28
2023-03-25T23:48:42.073Z,6.28
2023-03-25T23:51:45.578Z,6.28
2023-03-25T23:54:48.851Z,6.28
2023-03-25T23:57:50.737Z,6.29
